Time;durP1;ratioP1;P1;durP2;ratioP2;P2;SDS_P1;SDS_P2;PMS_P1;PMS_P2;Temp;Humidity;BMP_temperature;BMP_pressure;BME280_temperature;BME280_humidity;BME280_pressure;Samples;Min_cycle;Max_cycle;Signal;HPM_P1;HPM_P2
2023/12/17 00:02:07;;;;;;;17.63;11.20;;;;;;;;;;5090096;28;20563;-83
2023/12/17 00:05:11;;;;;;;16.77;10.43;;;;;;;;;;5102325;28;20545;-83
2023/12/17 00:08:19;;;;;;;17.33;10.77;;;;;;;;;;5103370;28;20529;-83
2023/12/17 00:11:23;;;;;;;19.93;11.77;;;;;;;;;;5089534;28;20530;-83
2023/12/17 00:14:28;;;;;;;21.13;12.93;;;;;;;;;;5089257;28;20882;-83
2023/12/17 00:17:33;;;;;;;20.20;11.30;;;;;;;;;;5101831;28;20537;-83
2023/12/17 00:20:38;;;;;;;21.20;11.63;;;;;;;;;;5088877;28;20549;-85
2023/12/17 00:23:42;;;;;;;18.03;11.10;;;;;;;;;;5101900;28;20541;-83
2023/12/17 00:26:46;;;;;;;18.10;11.30;;;;;;;;;;5101735;28;21042;-83
2023/12/17 00:29:51;;;;;;;17.93;12.10;;;;;;;;;;5101926;28;20553;-84
2023/12/17 00:32:55;;;;;;;19.77;12.33;;;;;;;;;;5089030;28;20557;-83
2023/12/17 00:35:59;;;;;;;20.40;11.73;;;;;;;;;;5088992;28;20616;-83
2023/12/17 00:39:04;;;;;;;19.17;11.13;;;;;;;;;;5088803;28;20915;-84
2023/12/17 00:42:08;;;;;;;19.57;11.63;;;;;;;;;;5101863;28;20533;-84
2023/12/17 00:45:12;;;;;;;19.73;11.87;;;;;;;;;;5088782;28;21132;-83
2023/12/17 00:48:17;;;;;;;20.93;11.47;;;;;;;;;;5077307;28;20533;-82
2023/12/17 00:51:21;;;;;;;20.77;12.20;;;;;;;;;;5076710;28;20540;-83
2023/12/17 00:54:25;;;;;;;20.13;11.63;;;;;;;;;;5088917;28;20552;-84
2023/12/17 00:57:29;;;;;;;18.87;11.57;;;;;;;;;;5100956;28;20540;-84
2023/12/17 01:00:35;;;;;;;19.50;11.87;;;;;;;;;;5100800;28;20611;-83
2023/12/17 01:03:39;;;;;;;24.90;12.07;;;;;;;;;;5100959;28;21092;-84
2023/12/17 01:06:44;;;;;;;22.57;12.57;;;;;;;;;;5087717;28;20687;-84
2023/12/17 01:09:48;;;;;;;23.37;12.87;;;;;;;;;;5078391;28;20561;-86
2023/12/17 01:12:52;;;;;;;20.63;12.23;;;;;;;;;;5089594;28;20542;-85
2023/12/17 01:15:56;;;;;;;22.63;12.60;;;;;;;;;;5066196;28;20612;-85
2023/12/17 01:19:00;;;;;;;18.83;12.37;;;;;;;;;;5089294;28;20537;-85
2023/12/17 01:22:05;;;;;;;19.43;11.97;;;;;;;;;;5089542;28;20553;-85
2023/12/17 01:25:09;;;;;;;19.27;11.63;;;;;;;;;;5065329;28;20550;-85
2023/12/17 01:28:14;;;;;;;23.70;11.77;;;;;;;;;;5101179;28;20526;-85
2023/12/17 01:31:18;;;;;;;19.60;12.00;;;;;;;;;;5077597;28;20549;-85
2023/12/17 01:34:22;;;;;;;19.90;12.13;;;;;;;;;;5077345;28;20533;-86
2023/12/17 01:37:26;;;;;;;17.07;10.83;;;;;;;;;;5089666;28;20533;-85
2023/12/17 01:40:31;;;;;;;19.90;12.73;;;;;;;;;;5088851;28;20538;-85
2023/12/17 01:43:36;;;;;;;18.27;11.53;;;;;;;;;;5077377;28;20544;-84
2023/12/17 01:46:41;;;;;;;20.93;12.37;;;;;;;;;;5077226;28;21242;-86
2023/12/17 01:49:45;;;;;;;19.87;11.67;;;;;;;;;;5076770;28;20544;-85
2023/12/17 01:52:49;;;;;;;20.53;11.83;;;;;;;;;;5077235;28;20897;-86
2023/12/17 01:55:53;;;;;;;22.63;12.40;;;;;;;;;;5087563;28;20976;-85
2023/12/17 01:58:58;;;;;;;22.03;12.53;;;;;;;;;;5087465;28;20544;-85
2023/12/17 02:02:03;;;;;;;18.83;11.60;;;;;;;;;;5076316;28;20556;-85
2023/12/17 02:05:07;;;;;;;20.03;12.00;;;;;;;;;;5099749;28;20560;-86
2023/12/17 02:08:12;;;;;;;19.83;11.93;;;;;;;;;;5087696;28;20552;-85
2023/12/17 02:11:16;;;;;;;16.80;10.40;;;;;;;;;;5087212;28;21124;-86
2023/12/17 02:14:20;;;;;;;18.53;11.23;;;;;;;;;;5064565;28;20981;-86
2023/12/17 02:17:28;;;;;;;19.67;11.67;;;;;;;;;;5074811;28;20553;-85
2023/12/17 02:20:34;;;;;;;19.37;11.20;;;;;;;;;;5075593;28;20548;-85
2023/12/17 02:23:38;;;;;;;20.10;11.33;;;;;;;;;;5100101;28;20553;-86
2023/12/17 02:26:43;;;;;;;18.10;10.87;;;;;;;;;;5087125;28;20655;-85
2023/12/17 02:29:48;;;;;;;17.87;11.13;;;;;;;;;;5087286;28;20553;-85
2023/12/17 02:32:52;;;;;;;17.97;11.50;;;;;;;;;;5076685;28;20541;-86
2023/12/17 02:35:57;;;;;;;17.90;11.73;;;;;;;;;;5087821;28;20615;-86
2023/12/17 02:39:01;;;;;;;18.87;11.30;;;;;;;;;;5087387;28;21084;-85
2023/12/17 02:42:06;;;;;;;18.80;11.53;;;;;;;;;;5075247;28;20564;-87
2023/12/17 02:45:11;;;;;;;18.97;11.87;;;;;;;;;;5075769;28;20543;-86
2023/12/17 02:48:15;;;;;;;16.43;10.80;;;;;;;;;;5076145;28;20600;-86
2023/12/17 02:51:19;;;;;;;17.83;11.27;;;;;;;;;;5075441;28;20564;-85
2023/12/17 02:54:24;;;;;;;15.10;10.53;;;;;;;;;;5087510;28;20540;-85
2023/12/17 02:57:28;;;;;;;17.00;11.03;;;;;;;;;;5074978;28;20544;-85
2023/12/17 03:00:32;;;;;;;16.03;10.37;;;;;;;;;;5100124;28;20885;-85
2023/12/17 03:03:37;;;;;;;15.23;10.83;;;;;;;;;;5075168;28;21186;-85
2023/12/17 03:06:41;;;;;;;18.73;10.80;;;;;;;;;;5085933;28;20667;-85
2023/12/17 03:09:45;;;;;;;17.70;10.90;;;;;;;;;;5086588;28;20540;-86
2023/12/17 03:12:49;;;;;;;16.90;11.30;;;;;;;;;;5075318;28;20893;-86
2023/12/17 03:15:53;;;;;;;17.23;10.70;;;;;;;;;;5063826;28;20623;-86
2023/12/17 03:18:57;;;;;;;15.63;10.73;;;;;;;;;;5087131;28;20560;-85
2023/12/17 03:22:02;;;;;;;16.70;10.37;;;;;;;;;;5075873;28;20547;-85
2023/12/17 03:25:07;;;;;;;17.93;10.97;;;;;;;;;;5086806;28;20548;-85
2023/12/17 03:28:11;;;;;;;17.63;10.77;;;;;;;;;;5074841;28;20970;-86
2023/12/17 03:31:16;;;;;;;17.60;11.10;;;;;;;;;;5074938;28;20556;-85
2023/12/17 03:34:20;;;;;;;16.53;10.13;;;;;;;;;;5086676;28;20548;-85
2023/12/17 03:37:24;;;;;;;15.07;10.60;;;;;;;;;;5086671;28;20536;-86
2023/12/17 03:40:29;;;;;;;18.40;11.17;;;;;;;;;;5075376;28;20905;-85
2023/12/17 03:43:33;;;;;;;17.83;11.17;;;;;;;;;;5075026;28;20545;-86
2023/12/17 03:46:38;;;;;;;17.57;10.73;;;;;;;;;;5099363;28;21234;-85
2023/12/17 03:49:42;;;;;;;17.77;11.30;;;;;;;;;;5074849;28;20548;-86
2023/12/17 03:52:47;;;;;;;14.53;10.00;;;;;;;;;;5075580;28;20544;-84
2023/12/17 03:55:52;;;;;;;14.60;10.03;;;;;;;;;;5086919;28;20616;-86
2023/12/17 03:58:56;;;;;;;14.67;9.40;;;;;;;;;;5086146;28;20566;-84
2023/12/17 04:02:02;;;;;;;15.63;10.50;;;;;;;;;;5086145;28;20533;-86
2023/12/17 04:05:10;;;;;;;17.73;10.57;;;;;;;;;;5086122;28;20611;-85
2023/12/17 04:08:14;;;;;;;15.70;10.00;;;;;;;;;;5086585;28;20600;-86
2023/12/17 04:11:19;;;;;;;14.97;10.27;;;;;;;;;;5099297;28;20548;-86
2023/12/17 04:14:23;;;;;;;15.00;10.07;;;;;;;;;;5075011;28;20544;-85
2023/12/17 04:17:27;;;;;;;15.47;9.77;;;;;;;;;;5086366;28;20541;-86
2023/12/17 04:20:31;;;;;;;14.67;10.17;;;;;;;;;;5102850;28;20534;-86
2023/12/17 04:23:35;;;;;;;14.70;9.67;;;;;;;;;;5079629;28;20610;-86
2023/12/17 04:26:41;;;;;;;13.37;9.57;;;;;;;;;;5079629;28;20615;-85
2023/12/17 04:29:45;;;;;;;13.83;9.90;;;;;;;;;;5079446;28;20533;-85
2023/12/17 04:32:49;;;;;;;13.13;9.83;;;;;;;;;;5079288;28;20529;-85
2023/12/17 04:35:54;;;;;;;14.83;9.30;;;;;;;;;;5067060;28;20612;-85
2023/12/17 04:38:58;;;;;;;13.43;9.63;;;;;;;;;;5079578;28;20925;-85
2023/12/17 04:42:02;;;;;;;13.10;9.13;;;;;;;;;;5067360;28;20537;-84
2023/12/17 04:45:07;;;;;;;16.03;10.30;;;;;;;;;;5089934;28;20537;-84
2023/12/17 04:48:11;;;;;;;15.43;10.13;;;;;;;;;;5066544;28;20616;-85
2023/12/17 04:51:16;;;;;;;15.17;9.80;;;;;;;;;;5078794;28;20556;-87
2023/12/17 04:54:21;;;;;;;14.83;9.63;;;;;;;;;;5090062;28;20541;-88
2023/12/17 04:57:25;;;;;;;11.80;8.57;;;;;;;;;;5090274;28;20541;-86
2023/12/17 05:00:29;;;;;;;13.63;9.50;;;;;;;;;;5089352;28;20550;-86
2023/12/17 05:03:34;;;;;;;12.83;9.03;;;;;;;;;;5089041;28;20525;-86
2023/12/17 05:06:37;;;;;;;15.50;10.50;;;;;;;;;;5065719;28;20640;-88
2023/12/17 05:09:42;;;;;;;13.93;9.57;;;;;;;;;;5077991;28;20540;-86
2023/12/17 05:12:47;;;;;;;15.37;9.70;;;;;;;;;;5077836;28;20541;-86
2023/12/17 05:15:51;;;;;;;16.80;9.60;;;;;;;;;;5089262;28;20612;-86
2023/12/17 05:18:57;;;;;;;13.13;8.93;;;;;;;;;;5067062;28;20549;-85
2023/12/17 05:22:00;;;;;;;12.47;8.83;;;;;;;;;;5089526;28;21109;-86
2023/12/17 05:25:05;;;;;;;15.73;8.80;;;;;;;;;;5077322;28;20545;-86
2023/12/17 05:28:09;;;;;;;13.37;8.43;;;;;;;;;;5102347;28;21136;-86
2023/12/17 05:31:14;;;;;;;14.90;10.17;;;;;;;;;;5088435;28;20541;-86
2023/12/17 05:34:18;;;;;;;12.47;9.13;;;;;;;;;;5088783;28;20902;-86
2023/12/17 05:37:22;;;;;;;14.13;9.53;;;;;;;;;;5089117;28;20545;-87
2023/12/17 05:40:26;;;;;;;15.23;9.13;;;;;;;;;;5066402;28;21076;-85
2023/12/17 05:43:31;;;;;;;12.53;8.57;;;;;;;;;;5100719;28;20545;-86
2023/12/17 05:46:35;;;;;;;11.40;8.30;;;;;;;;;;5101376;28;20628;-87
2023/12/17 05:49:39;;;;;;;11.43;8.60;;;;;;;;;;5077345;28;20521;-86
2023/12/17 05:52:45;;;;;;;11.37;8.63;;;;;;;;;;5089482;28;20533;-85
2023/12/17 05:55:49;;;;;;;12.70;9.30;;;;;;;;;;5065729;28;20621;-86
2023/12/17 05:58:53;;;;;;;11.77;8.40;;;;;;;;;;5088649;28;20588;-86
2023/12/17 06:01:57;;;;;;;11.73;8.63;;;;;;;;;;5088000;28;20553;-86
2023/12/17 06:05:02;;;;;;;13.07;9.60;;;;;;;;;;5087709;28;20534;-86
2023/12/17 06:08:06;;;;;;;14.67;9.53;;;;;;;;;;5100469;28;20580;-87
2023/12/17 06:11:16;;;;;;;11.70;8.73;;;;;;;;;;5088120;28;20534;-86
2023/12/17 06:14:20;;;;;;;13.03;9.13;;;;;;;;;;5087399;28;20538;-85
2023/12/17 06:17:24;;;;;;;9.13;6.87;;;;;;;;;;5087274;28;20538;-87
2023/12/17 06:20:30;;;;;;;12.87;8.57;;;;;;;;;;5087979;28;20541;-86
2023/12/17 06:23:34;;;;;;;10.67;7.33;;;;;;;;;;5087376;28;20537;-86
2023/12/17 06:26:38;;;;;;;10.97;7.63;;;;;;;;;;5075998;28;21200;-86
2023/12/17 06:29:42;;;;;;;10.37;7.90;;;;;;;;;;5087967;28;20529;-86
2023/12/17 06:32:46;;;;;;;9.53;7.30;;;;;;;;;;5075889;28;20537;-86
2023/12/17 06:35:50;;;;;;;9.50;7.60;;;;;;;;;;5088508;28;20617;-87
2023/12/17 06:38:54;;;;;;;9.17;7.27;;;;;;;;;;5100547;28;20549;-85
2023/12/17 06:41:58;;;;;;;9.53;7.50;;;;;;;;;;5087516;28;20537;-86
2023/12/17 06:45:03;;;;;;;10.53;7.07;;;;;;;;;;5075102;28;20557;-86
2023/12/17 06:48:08;;;;;;;11.10;7.90;;;;;;;;;;5086066;28;20597;-86
2023/12/17 06:51:12;;;;;;;11.57;8.07;;;;;;;;;;5075060;28;20543;-87
2023/12/17 06:54:16;;;;;;;10.63;7.63;;;;;;;;;;5075258;28;20537;-85
2023/12/17 06:57:20;;;;;;;9.80;7.07;;;;;;;;;;5099131;28;20609;-86
2023/12/17 07:00:24;;;;;;;9.43;6.93;;;;;;;;;;5074889;28;20533;-86
2023/12/17 07:03:28;;;;;;;11.37;7.73;;;;;;;;;;5074759;28;20533;-86
2023/12/17 07:06:33;;;;;;;11.63;7.53;;;;;;;;;;5086164;28;20651;-86
2023/12/17 07:09:37;;;;;;;11.43;7.80;;;;;;;;;;5098100;28;20542;-84
2023/12/17 07:12:42;;;;;;;14.30;8.10;;;;;;;;;;5097334;28;20883;-84
2023/12/17 07:15:46;;;;;;;11.93;7.20;;;;;;;;;;5097485;28;20627;-85
2023/12/17 07:18:51;;;;;;;9.27;6.80;;;;;;;;;;5073854;28;20546;-84
2023/12/17 07:21:55;;;;;;;10.07;7.43;;;;;;;;;;5086031;28;20533;-84
2023/12/17 07:24:59;;;;;;;11.60;8.03;;;;;;;;;;5097702;28;20542;-84
2023/12/17 07:28:03;;;;;;;9.13;7.20;;;;;;;;;;5097935;28;20585;-84
2023/12/17 07:31:07;;;;;;;11.30;7.93;;;;;;;;;;5072920;28;20534;-84
2023/12/17 07:34:12;;;;;;;11.70;8.20;;;;;;;;;;5084997;28;20537;-85
2023/12/17 07:37:17;;;;;;;14.40;8.50;;;;;;;;;;5084597;28;20609;-84
2023/12/17 07:40:21;;;;;;;11.70;8.10;;;;;;;;;;5097181;28;20530;-85
2023/12/17 07:43:25;;;;;;;8.77;7.13;;;;;;;;;;5097420;28;20541;-84
2023/12/17 07:46:29;;;;;;;10.83;7.20;;;;;;;;;;5084453;28;20612;-85
2023/12/17 07:49:33;;;;;;;10.57;7.43;;;;;;;;;;5097005;28;20597;-85
2023/12/17 07:52:38;;;;;;;11.57;7.47;;;;;;;;;;5083995;28;20549;-85
2023/12/17 07:55:42;;;;;;;9.93;7.00;;;;;;;;;;5100742;28;20612;-84
2023/12/17 07:58:46;;;;;;;10.83;7.10;;;;;;;;;;5077523;28;20537;-85
2023/12/17 08:01:50;;;;;;;8.87;6.73;;;;;;;;;;5088003;28;21097;-84
2023/12/17 08:04:55;;;;;;;9.53;7.03;;;;;;;;;;5088373;28;20537;-85
2023/12/17 08:07:59;;;;;;;9.53;7.03;;;;;;;;;;5088448;28;20588;-85
2023/12/17 08:11:04;;;;;;;7.77;6.33;;;;;;;;;;5100845;28;20538;-84
2023/12/17 08:14:07;;;;;;;8.27;6.60;;;;;;;;;;5076653;28;20545;-84
2023/12/17 08:17:12;;;;;;;8.53;6.93;;;;;;;;;;5076521;28;20985;-84
2023/12/17 08:20:18;;;;;;;11.00;7.50;;;;;;;;;;5088387;28;20537;-84
2023/12/17 08:23:22;;;;;;;10.70;7.17;;;;;;;;;;5088100;28;20537;-85
2023/12/17 08:26:29;;;;;;;16.43;8.60;;;;;;;;;;5100702;28;21152;-83
2023/12/17 08:29:33;;;;;;;20.47;13.80;;;;;;;;;;5087832;28;20588;-84
2023/12/17 08:32:38;;;;;;;23.83;15.97;;;;;;;;;;5076192;28;20533;-85
2023/12/17 08:35:44;;;;;;;25.37;17.33;;;;;;;;;;5076153;28;20612;-85
2023/12/17 08:38:49;;;;;;;21.90;15.70;;;;;;;;;;5087323;28;20545;-84
2023/12/17 08:41:53;;;;;;;22.77;16.43;;;;;;;;;;5087369;28;20550;-86
2023/12/17 08:44:58;;;;;;;15.70;12.03;;;;;;;;;;5087766;28;20537;-86
2023/12/17 08:48:02;;;;;;;26.80;18.80;;;;;;;;;;5075303;28;20593;-85
2023/12/17 08:51:06;;;;;;;30.57;19.27;;;;;;;;;;5086874;28;20534;-85
2023/12/17 08:54:12;;;;;;;26.80;18.27;;;;;;;;;;5063867;28;20537;-85
2023/12/17 08:57:17;;;;;;;30.90;19.33;;;;;;;;;;5075068;28;20633;-86
2023/12/17 09:00:21;;;;;;;30.47;18.63;;;;;;;;;;5086609;28;20530;-85
2023/12/17 09:03:25;;;;;;;32.63;19.87;;;;;;;;;;5086643;28;20179;-87
2023/12/17 09:06:29;;;;;;;28.10;18.30;;;;;;;;;;5073471;28;20636;-85
2023/12/17 09:09:33;;;;;;;28.50;18.50;;;;;;;;;;5087059;28;20596;-86
2023/12/17 09:12:38;;;;;;;33.23;18.70;;;;;;;;;;5099161;28;20541;-85
2023/12/17 09:15:42;;;;;;;30.17;18.93;;;;;;;;;;5099313;28;20210;-85
2023/12/17 09:18:47;;;;;;;27.80;18.77;;;;;;;;;;5087071;28;20175;-87
2023/12/17 09:21:52;;;;;;;27.93;18.73;;;;;;;;;;5098869;28;20182;-85
2023/12/17 09:24:56;;;;;;;26.53;18.07;;;;;;;;;;5087028;28;20534;-84
2023/12/17 09:28:01;;;;;;;26.20;17.27;;;;;;;;;;5086435;28;20183;-85
2023/12/17 09:31:08;;;;;;;31.23;18.03;;;;;;;;;;5087572;28;20171;-85
2023/12/17 09:34:14;;;;;;;25.03;17.10;;;;;;;;;;5086428;28;20669;-84
2023/12/17 09:37:18;;;;;;;20.43;14.27;;;;;;;;;;5087360;28;20616;-83
2023/12/17 09:40:22;;;;;;;31.53;22.90;;;;;;;;;;5076154;28;20533;-83
2023/12/17 09:43:26;;;;;;;48.20;33.53;;;;;;;;;;5099002;28;20179;-83
2023/12/17 09:46:30;;;;;;;189.23;140.40;;;;;;;;;;5075318;28;20616;-84
2023/12/17 09:49:35;;;;;;;129.13;113.60;;;;;;;;;;5085782;28;20217;-83
2023/12/17 09:52:41;;;;;;;30.03;26.70;;;;;;;;;;5074822;28;20560;-83
2023/12/17 09:55:45;;;;;;;13.57;11.53;;;;;;;;;;5098376;28;20210;-84
2023/12/17 09:58:49;;;;;;;12.57;9.90;;;;;;;;;;5086047;28;20175;-83
2023/12/17 10:01:53;;;;;;;10.77;8.77;;;;;;;;;;5085967;28;20178;-84
2023/12/17 10:04:58;;;;;;;9.53;7.97;;;;;;;;;;5097712;28;20536;-85
2023/12/17 10:08:02;;;;;;;9.63;8.30;;;;;;;;;;5098510;28;20183;-84
2023/12/17 10:11:07;;;;;;;9.17;6.93;;;;;;;;;;5086077;28;20190;-85
2023/12/17 10:14:22;;;;;;;10.30;7.90;;;;;;;;;;5085826;28;20181;-84
2023/12/17 10:17:26;;;;;;;10.03;7.73;;;;;;;;;;5097942;28;20179;-84
2023/12/17 10:20:31;;;;;;;9.07;7.40;;;;;;;;;;5085568;28;20171;-85
2023/12/17 10:23:48;;;;;;;9.10;7.33;;;;;;;;;;5074323;28;20179;-84
2023/12/17 10:26:53;;;;;;;10.57;9.43;;;;;;;;;;5085328;28;20219;-84
2023/12/17 10:29:59;;;;;;;9.77;7.77;;;;;;;;;;5097594;28;20206;-84
2023/12/17 10:33:13;;;;;;;8.83;6.60;;;;;;;;;;5085059;28;20183;-84
2023/12/17 10:36:18;;;;;;;17.57;10.47;;;;;;;;;;5097808;28;20214;-85
2023/12/17 10:39:22;;;;;;;9.40;7.33;;;;;;;;;;5097528;28;20175;-84
2023/12/17 10:42:29;;;;;;;12.30;8.87;;;;;;;;;;5073671;28;20642;-84
2023/12/17 10:45:35;;;;;;;9.80;7.70;;;;;;;;;;5097692;28;20215;-84
2023/12/17 10:48:39;;;;;;;11.60;7.37;;;;;;;;;;5097756;28;20647;-84
2023/12/17 10:51:43;;;;;;;8.57;7.17;;;;;;;;;;5097090;28;20528;-84
2023/12/17 10:54:48;;;;;;;8.93;6.97;;;;;;;;;;5062326;28;20667;-84
2023/12/17 10:58:14;;;;;;;8.60;7.17;;;;;;;;;;5084904;28;20182;-84
2023/12/17 11:01:18;;;;;;;11.43;7.17;;;;;;;;;;5085168;28;20171;-84
2023/12/17 11:04:23;;;;;;;8.07;6.37;;;;;;;;;;5073893;28;20179;-84
2023/12/17 11:07:28;;;;;;;6.50;5.37;;;;;;;;;;5097284;28;20179;-84
2023/12/17 11:10:37;;;;;;;6.17;5.43;;;;;;;;;;5085467;28;20662;-84
2023/12/17 11:13:42;;;;;;;5.27;4.77;;;;;;;;;;5096803;28;20183;-85
2023/12/17 11:16:48;;;;;;;7.37;4.67;;;;;;;;;;5073057;28;20214;-85
2023/12/17 11:19:59;;;;;;;6.57;4.13;;;;;;;;;;5097184;28;20179;-86
2023/12/17 11:23:04;;;;;;;5.33;4.30;;;;;;;;;;5084755;28;20174;-84
2023/12/17 11:26:09;;;;;;;5.53;4.80;;;;;;;;;;5083876;28;20207;-83
2023/12/17 11:29:37;;;;;;;6.23;4.50;;;;;;;;;;5085540;28;20210;-85
2023/12/17 11:32:42;;;;;;;6.13;4.67;;;;;;;;;;5101110;28;20170;-84
2023/12/17 11:35:48;;;;;;;6.87;4.43;;;;;;;;;;5076922;28;20218;-85
2023/12/17 11:38:53;;;;;;;6.30;5.13;;;;;;;;;;5077885;28;20170;-84
2023/12/17 11:41:57;;;;;;;5.50;4.33;;;;;;;;;;5101148;28;20183;-85
2023/12/17 11:45:02;;;;;;;5.30;4.40;;;;;;;;;;5100555;28;20182;-84
2023/12/17 11:48:09;;;;;;;6.10;4.90;;;;;;;;;;5087844;28;20198;-84
2023/12/17 11:51:24;;;;;;;6.20;5.53;;;;;;;;;;5087658;28;20618;-84
2023/12/17 11:54:28;;;;;;;6.77;5.60;;;;;;;;;;5088085;28;20182;-84
2023/12/17 11:57:33;;;;;;;7.50;4.90;;;;;;;;;;5099697;28;20182;-84
2023/12/17 12:00:37;;;;;;;7.97;5.17;;;;;;;;;;5087375;28;20171;-85
2023/12/17 12:03:43;;;;;;;6.70;5.10;;;;;;;;;;5064827;28;20183;-84
2023/12/17 12:06:52;;;;;;;8.37;5.40;;;;;;;;;;5087077;28;20222;-85
2023/12/17 12:10:05;;;;;;;8.23;6.33;;;;;;;;;;5075862;28;20202;-84
2023/12/17 12:13:09;;;;;;;6.33;5.60;;;;;;;;;;5075547;28;20171;-85
2023/12/17 12:16:14;;;;;;;6.10;5.20;;;;;;;;;;5086735;28;20210;-83
2023/12/17 12:19:19;;;;;;;6.73;5.03;;;;;;;;;;5087328;28;20174;-83
2023/12/17 12:22:28;;;;;;;7.10;5.07;;;;;;;;;;5074957;28;20179;-84
2023/12/17 12:25:32;;;;;;;6.70;4.20;;;;;;;;;;5099216;28;20215;-85
2023/12/17 12:28:36;;;;;;;8.80;5.10;;;;;;;;;;5074664;28;20182;-85
2023/12/17 12:31:50;;;;;;;6.20;4.67;;;;;;;;;;5086359;28;20639;-84
2023/12/17 12:34:55;;;;;;;7.47;5.20;;;;;;;;;;5098977;28;20179;-85
2023/12/17 12:37:59;;;;;;;7.53;5.07;;;;;;;;;;5086279;28;20178;-86
2023/12/17 12:41:12;;;;;;;6.33;4.80;;;;;;;;;;5085448;28;20173;-84
2023/12/17 12:44:16;;;;;;;6.80;5.00;;;;;;;;;;5086081;28;20182;-85
2023/12/17 12:47:22;;;;;;;7.20;5.17;;;;;;;;;;5086193;28;20210;-84
2023/12/17 12:50:25;;;;;;;6.70;4.87;;;;;;;;;;5099212;28;20216;-85
2023/12/17 12:53:30;;;;;;;6.87;4.47;;;;;;;;;;5098731;28;20182;-85
2023/12/17 12:56:35;;;;;;;6.23;4.73;;;;;;;;;;5086126;28;20219;-85
2023/12/17 12:59:39;;;;;;;7.47;5.40;;;;;;;;;;5073912;28;20175;-86
2023/12/17 13:02:43;;;;;;;9.00;4.70;;;;;;;;;;5098223;28;20182;-85
2023/12/17 13:05:47;;;;;;;6.60;4.97;;;;;;;;;;5085322;28;20226;-84
2023/12/17 13:08:51;;;;;;;5.27;4.60;;;;;;;;;;5098136;28;20179;-86
2023/12/17 13:11:56;;;;;;;5.63;4.53;;;;;;;;;;5085016;28;20171;-87
2023/12/17 13:15:00;;;;;;;6.23;4.97;;;;;;;;;;5061816;28;20179;-87
2023/12/17 13:18:04;;;;;;;7.50;5.53;;;;;;;;;;5084597;28;20183;-87
2023/12/17 13:21:08;;;;;;;8.07;6.20;;;;;;;;;;5097635;28;20539;-86
2023/12/17 13:24:12;;;;;;;8.20;6.50;;;;;;;;;;5073825;28;20183;-86
2023/12/17 13:27:17;;;;;;;8.67;6.97;;;;;;;;;;5072690;28;20214;-87
2023/12/17 13:30:25;;;;;;;10.40;6.93;;;;;;;;;;5084346;28;20215;-86
2023/12/17 13:33:29;;;;;;;7.83;6.00;;;;;;;;;;5097210;28;20179;-85
2023/12/17 13:36:33;;;;;;;7.67;6.70;;;;;;;;;;5085851;28;20687;-85
2023/12/17 13:39:37;;;;;;;8.53;6.40;;;;;;;;;;5073630;28;20183;-84
2023/12/17 13:42:42;;;;;;;8.03;6.37;;;;;;;;;;5085690;28;20175;-86
2023/12/17 13:45:46;;;;;;;8.73;6.53;;;;;;;;;;5085009;28;20214;-86
2023/12/17 13:48:50;;;;;;;9.13;6.70;;;;;;;;;;5085284;28;20179;-85
2023/12/17 13:51:55;;;;;;;8.90;6.80;;;;;;;;;;5084401;28;20171;-85
2023/12/17 13:54:59;;;;;;;9.57;6.37;;;;;;;;;;5074124;28;20547;-85
2023/12/17 13:58:04;;;;;;;9.30;7.80;;;;;;;;;;5097723;28;20178;-85
2023/12/17 14:01:10;;;;;;;8.60;7.50;;;;;;;;;;5097793;28;20179;-84
2023/12/17 14:04:14;;;;;;;10.00;7.40;;;;;;;;;;5084202;28;20175;-85
2023/12/17 14:07:20;;;;;;;9.97;8.00;;;;;;;;;;5096670;28;20222;-87
2023/12/17 14:10:24;;;;;;;8.87;7.93;;;;;;;;;;5084763;28;20675;-84
2023/12/17 14:13:28;;;;;;;9.57;7.40;;;;;;;;;;5061493;28;20187;-85
2023/12/17 14:16:32;;;;;;;10.23;8.00;;;;;;;;;;5084832;28;20226;-84
2023/12/17 14:19:38;;;;;;;9.73;8.03;;;;;;;;;;5096734;28;20179;-84
2023/12/17 14:22:42;;;;;;;10.63;8.00;;;;;;;;;;5096827;28;20183;-85
2023/12/17 14:25:47;;;;;;;10.43;8.40;;;;;;;;;;5096836;28;20214;-85
2023/12/17 14:28:51;;;;;;;10.37;8.50;;;;;;;;;;5061289;28;20175;-86
2023/12/17 14:32:02;;;;;;;9.90;8.27;;;;;;;;;;5072914;28;20171;-85
2023/12/17 14:35:09;;;;;;;13.33;8.73;;;;;;;;;;5072544;28;20644;-84
2023/12/17 14:38:13;;;;;;;11.90;9.10;;;;;;;;;;5084047;28;20179;-84
2023/12/17 14:41:18;;;;;;;9.97;8.73;;;;;;;;;;5096444;28;20179;-85
2023/12/17 14:44:22;;;;;;;12.37;9.60;;;;;;;;;;5096793;28;20536;-84
2023/12/17 14:47:26;;;;;;;13.07;10.07;;;;;;;;;;5083995;28;20178;-84
2023/12/17 14:50:32;;;;;;;11.77;9.03;;;;;;;;;;5072338;28;20203;-85
2023/12/17 14:53:36;;;;;;;14.37;10.13;;;;;;;;;;5084451;28;20183;-84
2023/12/17 14:56:40;;;;;;;13.13;10.47;;;;;;;;;;5084422;28;20218;-85
2023/12/17 14:59:44;;;;;;;14.00;10.27;;;;;;;;;;5083785;28;20179;-84
2023/12/17 15:02:49;;;;;;;11.87;9.87;;;;;;;;;;5083839;28;20175;-84
2023/12/17 15:05:53;;;;;;;15.30;11.23;;;;;;;;;;5096031;28;20706;-84
2023/12/17 15:09:01;;;;;;;15.77;11.80;;;;;;;;;;5083374;28;20183;-85
2023/12/17 15:12:06;;;;;;;16.20;12.03;;;;;;;;;;5083414;28;20171;-85
2023/12/17 15:15:11;;;;;;;16.50;12.37;;;;;;;;;;5096028;28;20183;-85
2023/12/17 15:18:15;;;;;;;18.10;12.40;;;;;;;;;;5083406;28;20182;-85
2023/12/17 15:21:22;;;;;;;18.50;13.17;;;;;;;;;;5096071;28;20183;-85
2023/12/17 15:24:26;;;;;;;26.70;14.67;;;;;;;;;;5096089;28;20182;-85
2023/12/17 15:27:33;;;;;;;20.73;13.40;;;;;;;;;;5095856;28;20178;-85
2023/12/17 15:30:37;;;;;;;38.00;15.13;;;;;;;;;;5095195;28;20207;-84
2023/12/17 15:33:41;;;;;;;27.00;13.77;;;;;;;;;;5095701;28;20533;-85
2023/12/17 15:36:45;;;;;;;28.10;14.60;;;;;;;;;;5082828;28;20214;-85
2023/12/17 15:39:49;;;;;;;16.50;12.43;;;;;;;;;;5083901;28;20544;-85
2023/12/17 15:42:53;;;;;;;28.03;14.03;;;;;;;;;;5083427;28;20541;-85
2023/12/17 15:45:58;;;;;;;23.47;14.10;;;;;;;;;;5083539;28;20616;-85
2023/12/17 15:49:01;;;;;;;20.67;13.03;;;;;;;;;;5082994;28;20557;-84
2023/12/17 15:52:06;;;;;;;21.40;14.07;;;;;;;;;;5071650;28;20596;-85
2023/12/17 15:55:10;;;;;;;20.37;13.70;;;;;;;;;;5071626;28;20557;-85
2023/12/17 15:58:16;;;;;;;26.57;15.33;;;;;;;;;;5071190;28;21093;-85
2023/12/17 16:01:20;;;;;;;24.00;16.63;;;;;;;;;;5094484;28;20541;-85
2023/12/17 16:04:25;;;;;;;19.70;14.53;;;;;;;;;;5082919;28;20541;-85
2023/12/17 16:07:29;;;;;;;20.77;13.67;;;;;;;;;;5095716;28;20538;-84
2023/12/17 16:10:33;;;;;;;21.87;13.43;;;;;;;;;;5071314;28;20597;-84
2023/12/17 16:13:38;;;;;;;28.90;14.30;;;;;;;;;;5095245;28;20541;-84
2023/12/17 16:16:42;;;;;;;23.67;11.43;;;;;;;;;;5086191;28;20612;-84
2023/12/17 16:19:46;;;;;;;31.00;12.37;;;;;;;;;;5086683;28;20541;-84
2023/12/17 16:22:50;;;;;;;19.53;12.40;;;;;;;;;;5087024;28;20533;-84
2023/12/17 16:25:54;;;;;;;18.27;11.93;;;;;;;;;;5086226;28;20619;-84
2023/12/17 16:28:58;;;;;;;19.80;11.53;;;;;;;;;;5086785;28;20903;-84
2023/12/17 16:32:03;;;;;;;22.80;11.47;;;;;;;;;;5086464;28;20592;-84
2023/12/17 16:35:08;;;;;;;46.33;11.43;;;;;;;;;;5099398;28;21069;-83
2023/12/17 16:38:13;;;;;;;73.13;12.97;;;;;;;;;;5099048;28;20560;-83
2023/12/17 16:41:17;;;;;;;33.67;11.83;;;;;;;;;;5098701;28;20533;-83
2023/12/17 16:44:21;;;;;;;50.80;11.67;;;;;;;;;;5074775;28;20903;-84
2023/12/17 16:47:25;;;;;;;89.00;11.90;;;;;;;;;;5063023;28;20568;-86
2023/12/17 16:50:29;;;;;;;55.97;12.73;;;;;;;;;;5098356;28;20612;-86
2023/12/17 16:53:33;;;;;;;86.07;14.87;;;;;;;;;;5074556;28;21091;-86
2023/12/17 16:56:38;;;;;;;56.40;11.37;;;;;;;;;;5085516;28;20615;-86
2023/12/17 16:59:43;;;;;;;15.83;10.13;;;;;;;;;;5098014;28;20898;-85
2023/12/17 17:02:47;;;;;;;28.83;13.27;;;;;;;;;;5098192;28;20540;-85
2023/12/17 17:05:51;;;;;;;47.17;11.90;;;;;;;;;;5084819;28;20643;-86
2023/12/17 17:08:55;;;;;;;18.60;10.30;;;;;;;;;;5085438;28;20560;-85
2023/12/17 17:11:59;;;;;;;87.13;15.77;;;;;;;;;;5085255;28;20952;-87
2023/12/17 17:15:07;;;;;;;56.43;14.43;;;;;;;;;;5097533;28;20552;-85
2023/12/17 17:18:11;;;;;;;27.30;11.70;;;;;;;;;;5098078;28;20552;-87
2023/12/17 17:21:15;;;;;;;134.37;13.67;;;;;;;;;;5085594;28;20533;-86
2023/12/17 17:24:20;;;;;;;16.97;10.73;;;;;;;;;;5085444;28;20544;-85
2023/12/17 17:27:24;;;;;;;68.27;13.13;;;;;;;;;;5073272;28;20570;-86
2023/12/17 17:30:28;;;;;;;20.17;11.73;;;;;;;;;;5079150;28;20552;-84
2023/12/17 17:33:34;;;;;;;17.30;10.77;;;;;;;;;;5100812;28;20549;-85
2023/12/17 17:36:37;;;;;;;19.57;11.07;;;;;;;;;;5088610;28;20621;-85
2023/12/17 17:39:42;;;;;;;34.63;12.60;;;;;;;;;;5076984;28;20552;-87
2023/12/17 17:42:46;;;;;;;51.00;18.13;;;;;;;;;;5099627;28;20546;-85
2023/12/17 17:45:51;;;;;;;53.00;19.57;;;;;;;;;;5075701;28;20619;-86
2023/12/17 17:48:55;;;;;;;17.97;10.43;;;;;;;;;;5088122;28;20545;-85
2023/12/17 17:51:59;;;;;;;24.17;9.57;;;;;;;;;;5088043;28;20600;-85
2023/12/17 17:55:04;;;;;;;13.97;8.87;;;;;;;;;;5087602;28;21049;-85
2023/12/17 17:58:09;;;;;;;15.63;9.33;;;;;;;;;;5100605;28;20676;-85
2023/12/17 18:01:16;;;;;;;13.73;9.00;;;;;;;;;;5087775;28;20538;-84
2023/12/17 18:04:20;;;;;;;14.90;10.37;;;;;;;;;;5087746;28;20545;-84
2023/12/17 18:07:24;;;;;;;26.13;12.30;;;;;;;;;;5100740;28;20545;-85